Terminal Aerodrome Forecast
Issued by NWS Sterling, VA

Current Version | Previous Version | Text Only | Print | Product List | Glossary Off
Versions: 1 2 3 4 5 6 7 8 9 10 11 12 13 14 15 16 17 18 19 20 21 22 23 24 25 26 27

213
FTUS41 KLWX 242323
TAFIAD
TAF
KIAD 242323Z 2500/2606 17005KT P6SM VCTS BKN060CB
     FM250400 VRB03KT P6SM BKN120
     FM251500 24005KT P6SM SCT150
     FM251800 25006KT P6SM BKN060=

USA.gov is the U.S. government's official web portal to all federal, state and local government web resources and services.